Terminal Aerodrome Forecast
Issued by NWS

Home | Current Version | Previous Version | Text Only | Print | Product List | Glossary On
Versions: 1 2 3 4 5 6 7 8 9 10 11 12
000
FTUS45 KREV 051126
TAFMMH
TAF
KMMH 051126Z 0512/0612 VRB03KT P6SM SKC
     FM051700 10007KT P6SM FEW080 SCT180
     FM052100 16009KT P6SM VCSH BKN080 BKN150
     FM060200 27011KT P6SM FEW080 SCT120 BKN180
     FM060700 30006KT P6SM FEW120 SCT180=

USA.gov is the U.S. government's official web portal to all federal, state and local government web resources and services.